sensor_id;sensor_type;location;lat;lon;timestamp;temperature;humidity
23729;DHT22;12045;60.214;24.724;2023-04-06T00:01:49;3.60;99.90
23729;DHT22;12045;60.214;24.724;2023-04-06T00:04:17;3.50;99.90
23729;DHT22;12045;60.214;24.724;2023-04-06T00:06:44;3.40;99.90
23729;DHT22;12045;60.214;24.724;2023-04-06T00:09:12;3.00;99.90
23729;DHT22;12045;60.214;24.724;2023-04-06T00:11:39;3.40;99.90
23729;DHT22;12045;60.214;24.724;2023-04-06T00:14:07;3.30;99.90
23729;DHT22;12045;60.214;24.724;2023-04-06T00:16:34;3.10;99.90
23729;DHT22;12045;60.214;24.724;2023-04-06T00:19:02;3.00;99.90
23729;DHT22;12045;60.214;24.724;2023-04-06T00:21:29;3.00;99.90
23729;DHT22;12045;60.214;24.724;2023-04-06T00:23:58;3.00;99.90
23729;DHT22;12045;60.214;24.724;2023-04-06T00:26:25;3.00;99.90
23729;DHT22;12045;60.214;24.724;2023-04-06T00:28:53;3.10;99.90
23729;DHT22;12045;60.214;24.724;2023-04-06T00:31:20;3.10;99.90
23729;DHT22;12045;60.214;24.724;2023-04-06T00:33:48;3.10;99.90
23729;DHT22;12045;60.214;24.724;2023-04-06T00:36:15;3.10;99.90
23729;DHT22;12045;60.214;24.724;2023-04-06T00:38:43;3.10;99.90
23729;DHT22;12045;60.214;24.724;2023-04-06T00:41:11;3.10;99.90
23729;DHT22;12045;60.214;24.724;2023-04-06T00:43:38;3.10;99.90
23729;DHT22;12045;60.214;24.724;2023-04-06T00:46:06;3.10;99.90
23729;DHT22;12045;60.214;24.724;2023-04-06T00:48:34;3.00;99.90
23729;DHT22;12045;60.214;24.724;2023-04-06T00:51:01;2.90;99.90
23729;DHT22;12045;60.214;24.724;2023-04-06T00:53:29;2.70;99.90
23729;DHT22;12045;60.214;24.724;2023-04-06T00:55:56;2.70;99.90
23729;DHT22;12045;60.214;24.724;2023-04-06T00:58:24;2.60;99.90
23729;DHT22;12045;60.214;24.724;2023-04-06T01:00:52;2.60;99.90
23729;DHT22;12045;60.214;24.724;2023-04-06T01:03:19;2.70;99.90
23729;DHT22;12045;60.214;24.724;2023-04-06T01:05:47;2.70;99.90
23729;DHT22;12045;60.214;24.724;2023-04-06T01:08:14;2.80;99.90
23729;DHT22;12045;60.214;24.724;2023-04-06T01:10:42;2.80;99.90
23729;DHT22;12045;60.214;24.724;2023-04-06T01:13:10;2.80;99.90
23729;DHT22;12045;60.214;24.724;2023-04-06T01:15:37;2.90;99.90
23729;DHT22;12045;60.214;24.724;2023-04-06T01:18:07;2.90;99.90
23729;DHT22;12045;60.214;24.724;2023-04-06T01:20:37;2.90;99.90
23729;DHT22;12045;60.214;24.724;2023-04-06T01:23:04;3.10;99.90
23729;DHT22;12045;60.214;24.724;2023-04-06T01:25:32;2.80;99.90
23729;DHT22;12045;60.214;24.724;2023-04-06T01:27:59;2.80;99.90
23729;DHT22;12045;60.214;24.724;2023-04-06T01:30:27;2.70;99.90
23729;DHT22;12045;60.214;24.724;2023-04-06T01:32:54;2.70;99.90
23729;DHT22;12045;60.214;24.724;2023-04-06T01:35:22;2.70;99.90
23729;DHT22;12045;60.214;24.724;2023-04-06T01:37:49;2.70;99.90
23729;DHT22;12045;60.214;24.724;2023-04-06T01:40:17;2.70;99.90
23729;DHT22;12045;60.214;24.724;2023-04-06T01:42:44;2.70;99.90
23729;DHT22;12045;60.214;24.724;2023-04-06T01:45:12;2.70;99.90
23729;DHT22;12045;60.214;24.724;2023-04-06T01:47:39;2.70;99.90
23729;DHT22;12045;60.214;24.724;2023-04-06T01:50:07;2.70;99.90
23729;DHT22;12045;60.214;24.724;2023-04-06T01:52:35;2.70;99.90
23729;DHT22;12045;60.214;24.724;2023-04-06T01:55:02;2.70;99.90
23729;DHT22;12045;60.214;24.724;2023-04-06T01:57:30;2.70;99.90
23729;DHT22;12045;60.214;24.724;2023-04-06T01:59:58;2.60;99.90
23729;DHT22;12045;60.214;24.724;2023-04-06T02:02:25;2.60;99.90
23729;DHT22;12045;60.214;24.724;2023-04-06T02:04:53;2.60;99.90
23729;DHT22;12045;60.214;24.724;2023-04-06T02:07:20;2.60;99.90
23729;DHT22;12045;60.214;24.724;2023-04-06T02:09:48;2.60;99.90
23729;DHT22;12045;60.214;24.724;2023-04-06T02:12:15;2.50;99.90
23729;DHT22;12045;60.214;24.724;2023-04-06T02:14:43;2.50;99.90
23729;DHT22;12045;60.214;24.724;2023-04-06T02:17:10;2.40;99.90
23729;DHT22;12045;60.214;24.724;2023-04-06T02:19:38;2.40;99.90
23729;DHT22;12045;60.214;24.724;2023-04-06T02:22:05;2.40;99.90
23729;DHT22;12045;60.214;24.724;2023-04-06T02:24:33;2.40;99.90
23729;DHT22;12045;60.214;24.724;2023-04-06T02:27:00;2.40;99.90
23729;DHT22;12045;60.214;24.724;2023-04-06T02:29:28;2.40;99.90
23729;DHT22;12045;60.214;24.724;2023-04-06T02:31:55;2.40;99.90
23729;DHT22;12045;60.214;24.724;2023-04-06T02:34:23;2.40;99.90
23729;DHT22;12045;60.214;24.724;2023-04-06T02:36:50;2.40;99.90
23729;DHT22;12045;60.214;24.724;2023-04-06T02:39:18;2.40;99.90
23729;DHT22;12045;60.214;24.724;2023-04-06T02:41:46;2.30;99.90
23729;DHT22;12045;60.214;24.724;2023-04-06T02:44:13;2.30;99.90
23729;DHT22;12045;60.214;24.724;2023-04-06T02:46:41;2.30;99.90
23729;DHT22;12045;60.214;24.724;2023-04-06T02:49:09;2.20;99.90
23729;DHT22;12045;60.214;24.724;2023-04-06T02:51:37;2.20;99.90
23729;DHT22;12045;60.214;24.724;2023-04-06T02:54:04;2.20;99.90
23729;DHT22;12045;60.214;24.724;2023-04-06T02:56:32;2.10;99.90
23729;DHT22;12045;60.214;24.724;2023-04-06T02:58:59;2.10;99.90
23729;DHT22;12045;60.214;24.724;2023-04-06T03:01:27;2.10;99.90
23729;DHT22;12045;60.214;24.724;2023-04-06T03:03:54;2.00;99.90
23729;DHT22;12045;60.214;24.724;2023-04-06T03:06:22;2.00;99.90
23729;DHT22;12045;60.214;24.724;2023-04-06T03:08:50;1.90;99.90
23729;DHT22;12045;60.214;24.724;2023-04-06T03:11:17;2.00;99.90
23729;DHT22;12045;60.214;24.724;2023-04-06T03:13:45;2.00;99.90
23729;DHT22;12045;60.214;24.724;2023-04-06T03:16:12;2.00;99.90
23729;DHT22;12045;60.214;24.724;2023-04-06T03:18:40;1.90;99.90
23729;DHT22;12045;60.214;24.724;2023-04-06T03:21:07;2.70;99.90
23729;DHT22;12045;60.214;24.724;2023-04-06T03:23:35;1.90;99.90
23729;DHT22;12045;60.214;24.724;2023-04-06T03:26:02;2.00;99.90
23729;DHT22;12045;60.214;24.724;2023-04-06T03:28:30;2.00;99.90
23729;DHT22;12045;60.214;24.724;2023-04-06T03:30:58;2.10;99.90
23729;DHT22;12045;60.214;24.724;2023-04-06T03:33:26;2.10;99.90
23729;DHT22;12045;60.214;24.724;2023-04-06T03:36:05;2.10;99.90
23729;DHT22;12045;60.214;24.724;2023-04-06T03:38:34;2.10;99.90
23729;DHT22;12045;60.214;24.724;2023-04-06T03:41:01;2.00;99.90
23729;DHT22;12045;60.214;24.724;2023-04-06T03:43:28;2.00;99.90
23729;DHT22;12045;60.214;24.724;2023-04-06T03:45:56;1.30;99.90
23729;DHT22;12045;60.214;24.724;2023-04-06T03:48:23;2.00;99.90
23729;DHT22;12045;60.214;24.724;2023-04-06T03:50:51;2.30;99.90
23729;DHT22;12045;60.214;24.724;2023-04-06T03:53:18;2.00;99.90
23729;DHT22;12045;60.214;24.724;2023-04-06T03:55:46;2.10;99.90
23729;DHT22;12045;60.214;24.724;2023-04-06T03:58:14;2.10;99.90
23729;DHT22;12045;60.214;24.724;2023-04-06T04:00:42;2.10;99.90
23729;DHT22;12045;60.214;24.724;2023-04-06T04:03:09;2.10;99.90
23729;DHT22;12045;60.214;24.724;2023-04-06T04:05:37;2.10;99.90
23729;DHT22;12045;60.214;24.724;2023-04-06T04:08:04;2.10;99.90
23729;DHT22;12045;60.214;24.724;2023-04-06T04:10:32;2.10;99.90
23729;DHT22;12045;60.214;24.724;2023-04-06T04:12:59;2.20;99.90
23729;DHT22;12045;60.214;24.724;2023-04-06T04:15:27;2.30;99.90
23729;DHT22;12045;60.214;24.724;2023-04-06T04:17:54;2.30;99.90
23729;DHT22;12045;60.214;24.724;2023-04-06T04:20:22;2.30;99.90
23729;DHT22;12045;60.214;24.724;2023-04-06T04:22:49;2.30;99.90
23729;DHT22;12045;60.214;24.724;2023-04-06T04:25:17;2.30;99.90
23729;DHT22;12045;60.214;24.724;2023-04-06T04:27:45;2.40;99.90
23729;DHT22;12045;60.214;24.724;2023-04-06T04:30:12;2.50;99.90
23729;DHT22;12045;60.214;24.724;2023-04-06T04:32:40;2.50;99.90
23729;DHT22;12045;60.214;24.724;2023-04-06T04:35:08;2.80;99.90
23729;DHT22;12045;60.214;24.724;2023-04-06T04:37:37;2.60;99.90
23729;DHT22;12045;60.214;24.724;2023-04-06T04:40:06;2.60;99.90
23729;DHT22;12045;60.214;24.724;2023-04-06T04:42:34;2.60;99.90
23729;DHT22;12045;60.214;24.724;2023-04-06T04:45:01;2.70;99.90
23729;DHT22;12045;60.214;24.724;2023-04-06T04:47:28;2.70;99.90
23729;DHT22;12045;60.214;24.724;2023-04-06T04:49:57;2.80;99.90
23729;DHT22;12045;60.214;24.724;2023-04-06T04:52:24;2.80;99.90
23729;DHT22;12045;60.214;24.724;2023-04-06T04:54:52;2.70;99.90
23729;DHT22;12045;60.214;24.724;2023-04-06T04:57:19;2.80;99.90
23729;DHT22;12045;60.214;24.724;2023-04-06T04:59:47;2.80;99.90
23729;DHT22;12045;60.214;24.724;2023-04-06T05:02:15;2.90;99.90
23729;DHT22;12045;60.214;24.724;2023-04-06T05:04:42;3.00;99.90
23729;DHT22;12045;60.214;24.724;2023-04-06T05:07:10;3.00;99.90
23729;DHT22;12045;60.214;24.724;2023-04-06T05:09:38;3.10;99.90
23729;DHT22;12045;60.214;24.724;2023-04-06T05:12:07;3.30;99.90
23729;DHT22;12045;60.214;24.724;2023-04-06T05:14:38;3.10;99.90
23729;DHT22;12045;60.214;24.724;2023-04-06T05:17:06;3.20;99.90
23729;DHT22;12045;60.214;24.724;2023-04-06T05:19:34;3.20;99.90
23729;DHT22;12045;60.214;24.724;2023-04-06T05:22:02;3.50;99.90
23729;DHT22;12045;60.214;24.724;2023-04-06T05:24:29;3.30;99.90
23729;DHT22;12045;60.214;24.724;2023-04-06T05:26:57;3.40;99.90
23729;DHT22;12045;60.214;24.724;2023-04-06T05:29:24;3.40;99.90
23729;DHT22;12045;60.214;24.724;2023-04-06T05:31:52;3.50;99.90
23729;DHT22;12045;60.214;24.724;2023-04-06T05:34:20;3.50;99.90
23729;DHT22;12045;60.214;24.724;2023-04-06T05:36:47;3.50;99.90
23729;DHT22;12045;60.214;24.724;2023-04-06T05:39:15;3.60;99.90
23729;DHT22;12045;60.214;24.724;2023-04-06T05:41:43;3.70;99.90
23729;DHT22;12045;60.214;24.724;2023-04-06T05:44:10;3.70;99.90
23729;DHT22;12045;60.214;24.724;2023-04-06T05:46:38;4.10;99.90
23729;DHT22;12045;60.214;24.724;2023-04-06T05:49:05;3.90;99.90
23729;DHT22;12045;60.214;24.724;2023-04-06T05:51:33;3.90;99.90
23729;DHT22;12045;60.214;24.724;2023-04-06T05:54:01;4.00;99.90
23729;DHT22;12045;60.214;24.724;2023-04-06T05:56:30;4.00;99.90
23729;DHT22;12045;60.214;24.724;2023-04-06T05:58:59;4.10;99.90
23729;DHT22;12045;60.214;24.724;2023-04-06T06:01:26;4.40;99.90
23729;DHT22;12045;60.214;24.724;2023-04-06T06:03:54;4.10;99.90
23729;DHT22;12045;60.214;24.724;2023-04-06T06:06:22;4.60;99.90
23729;DHT22;12045;60.214;24.724;2023-04-06T06:08:49;4.40;99.90
23729;DHT22;12045;60.214;24.724;2023-04-06T06:11:17;4.30;99.90
23729;DHT22;12045;60.214;24.724;2023-04-06T06:13:44;4.50;99.90
23729;DHT22;12045;60.214;24.724;2023-04-06T06:16:12;4.50;99.90
23729;DHT22;12045;60.214;24.724;2023-04-06T06:18:39;4.60;99.90
23729;DHT22;12045;60.214;24.724;2023-04-06T06:21:07;4.60;99.90
23729;DHT22;12045;60.214;24.724;2023-04-06T06:23:35;4.70;99.90
23729;DHT22;12045;60.214;24.724;2023-04-06T06:26:02;4.70;99.90
23729;DHT22;12045;60.214;24.724;2023-04-06T06:28:30;4.80;99.90
23729;DHT22;12045;60.214;24.724;2023-04-06T06:30:58;4.80;99.90
23729;DHT22;12045;60.214;24.724;2023-04-06T06:33:25;4.80;99.90
23729;DHT22;12045;60.214;24.724;2023-04-06T06:35:53;5.00;99.90
23729;DHT22;12045;60.214;24.724;2023-04-06T06:38:21;4.80;99.90
23729;DHT22;12045;60.214;24.724;2023-04-06T06:40:50;5.00;99.90
23729;DHT22;12045;60.214;24.724;2023-04-06T06:43:17;4.70;99.90
23729;DHT22;12045;60.214;24.724;2023-04-06T06:45:45;4.90;99.90
23729;DHT22;12045;60.214;24.724;2023-04-06T06:48:13;5.00;99.90
23729;DHT22;12045;60.214;24.724;2023-04-06T06:50:40;5.00;99.90
23729;DHT22;12045;60.214;24.724;2023-04-06T06:53:08;5.10;99.90
23729;DHT22;12045;60.214;24.724;2023-04-06T06:55:36;5.10;99.90
23729;DHT22;12045;60.214;24.724;2023-04-06T06:58:03;5.30;99.90
23729;DHT22;12045;60.214;24.724;2023-04-06T07:00:31;5.00;99.90
23729;DHT22;12045;60.214;24.724;2023-04-06T07:02:59;4.90;99.90
23729;DHT22;12045;60.214;24.724;2023-04-06T07:05:27;4.90;99.90
23729;DHT22;12045;60.214;24.724;2023-04-06T07:07:55;4.80;99.90
23729;DHT22;12045;60.214;24.724;2023-04-06T07:10:23;4.70;99.90
23729;DHT22;12045;60.214;24.724;2023-04-06T07:12:50;4.20;99.90
23729;DHT22;12045;60.214;24.724;2023-04-06T07:15:18;4.40;99.90
23729;DHT22;12045;60.214;24.724;2023-04-06T07:17:46;4.70;99.90
23729;DHT22;12045;60.214;24.724;2023-04-06T07:20:14;4.10;99.90
23729;DHT22;12045;60.214;24.724;2023-04-06T07:22:43;3.90;99.90
23729;DHT22;12045;60.214;24.724;2023-04-06T07:25:12;3.80;99.90
23729;DHT22;12045;60.214;24.724;2023-04-06T07:27:40;3.60;99.90
23729;DHT22;12045;60.214;24.724;2023-04-06T07:30:08;3.50;99.90
23729;DHT22;12045;60.214;24.724;2023-04-06T07:32:36;3.60;99.90
23729;DHT22;12045;60.214;24.724;2023-04-06T07:35:04;3.30;99.90
23729;DHT22;12045;60.214;24.724;2023-04-06T07:37:32;3.30;99.90
23729;DHT22;12045;60.214;24.724;2023-04-06T07:39:59;3.70;99.90
23729;DHT22;12045;60.214;24.724;2023-04-06T07:42:27;3.30;99.90
23729;DHT22;12045;60.214;24.724;2023-04-06T07:44:55;3.60;99.90
23729;DHT22;12045;60.214;24.724;2023-04-06T07:47:23;3.30;99.90
23729;DHT22;12045;60.214;24.724;2023-04-06T07:49:54;3.30;99.90
23729;DHT22;12045;60.214;24.724;2023-04-06T07:52:25;3.50;99.90
23729;DHT22;12045;60.214;24.724;2023-04-06T07:54:52;4.40;99.90
23729;DHT22;12045;60.214;24.724;2023-04-06T07:57:21;3.20;99.90
23729;DHT22;12045;60.214;24.724;2023-04-06T07:59:51;3.20;99.90
23729;DHT22;12045;60.214;24.724;2023-04-06T08:02:19;3.50;99.90
23729;DHT22;12045;60.214;24.724;2023-04-06T08:04:47;3.40;99.90
23729;DHT22;12045;60.214;24.724;2023-04-06T08:07:15;3.30;99.90
23729;DHT22;12045;60.214;24.724;2023-04-06T08:09:43;3.50;99.90
23729;DHT22;12045;60.214;24.724;2023-04-06T08:12:11;3.20;99.90
23729;DHT22;12045;60.214;24.724;2023-04-06T08:14:38;3.30;99.90
23729;DHT22;12045;60.214;24.724;2023-04-06T08:17:06;2.90;99.90
23729;DHT22;12045;60.214;24.724;2023-04-06T08:19:33;3.40;99.90
23729;DHT22;12045;60.214;24.724;2023-04-06T08:22:01;3.80;99.90
23729;DHT22;12045;60.214;24.724;2023-04-06T08:24:29;3.40;99.90
23729;DHT22;12045;60.214;24.724;2023-04-06T08:26:57;3.40;99.90
23729;DHT22;12045;60.214;24.724;2023-04-06T08:29:25;3.30;99.90
23729;DHT22;12045;60.214;24.724;2023-04-06T08:31:53;3.40;99.90
23729;DHT22;12045;60.214;24.724;2023-04-06T08:34:22;3.60;99.90
23729;DHT22;12045;60.214;24.724;2023-04-06T08:36:51;3.50;99.90
23729;DHT22;12045;60.214;24.724;2023-04-06T08:39:19;3.50;99.90
23729;DHT22;12045;60.214;24.724;2023-04-06T08:41:53;3.20;99.90
23729;DHT22;12045;60.214;24.724;2023-04-06T08:44:25;3.20;99.90
23729;DHT22;12045;60.214;24.724;2023-04-06T08:46:52;3.10;99.90
23729;DHT22;12045;60.214;24.724;2023-04-06T08:49:20;3.20;99.90
23729;DHT22;12045;60.214;24.724;2023-04-06T08:51:49;3.00;99.90
23729;DHT22;12045;60.214;24.724;2023-04-06T08:54:16;2.90;99.90
23729;DHT22;12045;60.214;24.724;2023-04-06T08:56:44;3.00;99.90
23729;DHT22;12045;60.214;24.724;2023-04-06T08:59:12;2.90;99.90
23729;DHT22;12045;60.214;24.724;2023-04-06T09:01:40;3.10;99.90
23729;DHT22;12045;60.214;24.724;2023-04-06T09:04:10;3.10;99.90
23729;DHT22;12045;60.214;24.724;2023-04-06T09:06:40;2.90;99.90
23729;DHT22;12045;60.214;24.724;2023-04-06T09:09:08;2.90;99.90
23729;DHT22;12045;60.214;24.724;2023-04-06T09:11:45;2.70;99.90
23729;DHT22;12045;60.214;24.724;2023-04-06T09:14:14;2.70;99.90
23729;DHT22;12045;60.214;24.724;2023-04-06T09:16:44;2.80;99.90
23729;DHT22;12045;60.214;24.724;2023-04-06T09:19:13;2.70;99.90
23729;DHT22;12045;60.214;24.724;2023-04-06T09:21:40;2.80;99.90
23729;DHT22;12045;60.214;24.724;2023-04-06T09:24:08;2.50;99.90
23729;DHT22;12045;60.214;24.724;2023-04-06T09:26:47;2.70;99.90
23729;DHT22;12045;60.214;24.724;2023-04-06T09:29:24;2.80;99.90
23729;DHT22;12045;60.214;24.724;2023-04-06T09:32:05;3.30;99.90
23729;DHT22;12045;60.214;24.724;2023-04-06T09:34:36;2.90;99.90
23729;DHT22;12045;60.214;24.724;2023-04-06T09:37:16;2.60;99.90
23729;DHT22;12045;60.214;24.724;2023-04-06T09:39:46;2.60;99.90
23729;DHT22;12045;60.214;24.724;2023-04-06T09:42:24;2.90;99.90
23729;DHT22;12045;60.214;24.724;2023-04-06T09:44:52;2.60;99.90
23729;DHT22;12045;60.214;24.724;2023-04-06T09:47:20;2.40;99.90
23729;DHT22;12045;60.214;24.724;2023-04-06T09:49:57;2.70;99.90
23729;DHT22;12045;60.214;24.724;2023-04-06T09:55:12;2.80;99.90
23729;DHT22;12045;60.214;24.724;2023-04-06T10:00:22;2.80;99.90
23729;DHT22;12045;60.214;24.724;2023-04-06T10:02:52;3.00;99.90
23729;DHT22;12045;60.214;24.724;2023-04-06T10:07:57;3.00;99.90
23729;DHT22;12045;60.214;24.724;2023-04-06T10:10:28;2.90;99.90
23729;DHT22;12045;60.214;24.724;2023-04-06T10:12:56;3.70;99.90
23729;DHT22;12045;60.214;24.724;2023-04-06T10:15:24;3.00;99.90
23729;DHT22;12045;60.214;24.724;2023-04-06T10:17:52;3.00;99.90
23729;DHT22;12045;60.214;24.724;2023-04-06T10:25:30;3.20;99.90
23729;DHT22;12045;60.214;24.724;2023-04-06T10:28:00;3.30;99.90
23729;DHT22;12045;60.214;24.724;2023-04-06T10:30:28;3.30;99.90
23729;DHT22;12045;60.214;24.724;2023-04-06T10:32:56;3.30;99.90
23729;DHT22;12045;60.214;24.724;2023-04-06T10:35:24;3.20;99.90
23729;DHT22;12045;60.214;24.724;2023-04-06T10:38:04;3.10;99.90
23729;DHT22;12045;60.214;24.724;2023-04-06T10:40:36;3.10;99.90
23729;DHT22;12045;60.214;24.724;2023-04-06T10:43:12;3.20;99.90
23729;DHT22;12045;60.214;24.724;2023-04-06T10:45:40;3.30;99.90
23729;DHT22;12045;60.214;24.724;2023-04-06T10:48:18;3.30;99.90
23729;DHT22;12045;60.214;24.724;2023-04-06T10:50:50;3.70;99.90
23729;DHT22;12045;60.214;24.724;2023-04-06T10:53:23;3.50;99.90
23729;DHT22;12045;60.214;24.724;2023-04-06T10:55:51;3.40;99.90
23729;DHT22;12045;60.214;24.724;2023-04-06T10:58:20;3.40;99.90
23729;DHT22;12045;60.214;24.724;2023-04-06T11:00:48;3.90;99.90
23729;DHT22;12045;60.214;24.724;2023-04-06T11:03:18;3.50;99.90
23729;DHT22;12045;60.214;24.724;2023-04-06T11:05:47;3.10;99.90
23729;DHT22;12045;60.214;24.724;2023-04-06T11:08:29;3.70;99.90
23729;DHT22;12045;60.214;24.724;2023-04-06T11:11:14;3.80;99.90
23729;DHT22;12045;60.214;24.724;2023-04-06T11:13:51;3.90;99.90
23729;DHT22;12045;60.214;24.724;2023-04-06T11:16:21;3.90;99.90
23729;DHT22;12045;60.214;24.724;2023-04-06T11:18:59;3.90;99.90
23729;DHT22;12045;60.214;24.724;2023-04-06T11:21:41;3.90;99.90
23729;DHT22;12045;60.214;24.724;2023-04-06T11:24:21;3.90;99.90
23729;DHT22;12045;60.214;24.724;2023-04-06T11:26:56;3.90;99.90
23729;DHT22;12045;60.214;24.724;2023-04-06T11:29:26;3.90;99.90
23729;DHT22;12045;60.214;24.724;2023-04-06T11:32:02;3.70;99.90
23729;DHT22;12045;60.214;24.724;2023-04-06T11:34:32;3.80;99.90
23729;DHT22;12045;60.214;24.724;2023-04-06T11:37:01;3.80;99.90
23729;DHT22;12045;60.214;24.724;2023-04-06T11:39:38;4.20;99.90
23729;DHT22;12045;60.214;24.724;2023-04-06T11:42:07;3.80;99.90
23729;DHT22;12045;60.214;24.724;2023-04-06T11:44:37;3.80;99.90
23729;DHT22;12045;60.214;24.724;2023-04-06T11:47:10;4.10;99.90
23729;DHT22;12045;60.214;24.724;2023-04-06T11:49:39;3.60;99.90
23729;DHT22;12045;60.214;24.724;2023-04-06T11:52:24;3.70;99.90
23729;DHT22;12045;60.214;24.724;2023-04-06T11:54:53;3.70;99.90
23729;DHT22;12045;60.214;24.724;2023-04-06T11:57:22;3.70;99.90
23729;DHT22;12045;60.214;24.724;2023-04-06T11:59:53;3.80;99.90
23729;DHT22;12045;60.214;24.724;2023-04-06T12:02:20;3.80;99.90
23729;DHT22;12045;60.214;24.724;2023-04-06T12:04:48;4.20;99.90
23729;DHT22;12045;60.214;24.724;2023-04-06T12:07:16;3.90;99.90
23729;DHT22;12045;60.214;24.724;2023-04-06T12:09:43;3.90;99.90
23729;DHT22;12045;60.214;24.724;2023-04-06T12:12:11;3.90;99.90
23729;DHT22;12045;60.214;24.724;2023-04-06T12:14:39;3.90;99.90
23729;DHT22;12045;60.214;24.724;2023-04-06T12:17:06;3.90;99.90
23729;DHT22;12045;60.214;24.724;2023-04-06T12:19:34;3.90;99.90
23729;DHT22;12045;60.214;24.724;2023-04-06T12:22:01;3.90;99.90
23729;DHT22;12045;60.214;24.724;2023-04-06T12:24:29;3.70;99.90
23729;DHT22;12045;60.214;24.724;2023-04-06T12:26:56;3.80;99.90
23729;DHT22;12045;60.214;24.724;2023-04-06T12:29:35;3.80;99.90
23729;DHT22;12045;60.214;24.724;2023-04-06T12:32:03;3.80;99.90
23729;DHT22;12045;60.214;24.724;2023-04-06T12:34:30;3.80;99.90
23729;DHT22;12045;60.214;24.724;2023-04-06T12:36:58;4.20;99.90
23729;DHT22;12045;60.214;24.724;2023-04-06T12:39:27;4.30;99.90
23729;DHT22;12045;60.214;24.724;2023-04-06T12:41:55;3.90;99.90
23729;DHT22;12045;60.214;24.724;2023-04-06T12:44:23;3.80;99.90
23729;DHT22;12045;60.214;24.724;2023-04-06T12:46:53;3.80;99.90
23729;DHT22;12045;60.214;24.724;2023-04-06T12:49:21;3.80;99.90
23729;DHT22;12045;60.214;24.724;2023-04-06T12:51:49;3.70;99.90
23729;DHT22;12045;60.214;24.724;2023-04-06T12:54:17;3.80;99.90
23729;DHT22;12045;60.214;24.724;2023-04-06T12:56:45;3.70;99.90
23729;DHT22;12045;60.214;24.724;2023-04-06T12:59:12;3.80;99.90
23729;DHT22;12045;60.214;24.724;2023-04-06T13:01:40;3.80;99.90
23729;DHT22;12045;60.214;24.724;2023-04-06T13:04:07;3.80;99.90
23729;DHT22;12045;60.214;24.724;2023-04-06T13:06:35;3.90;99.90
23729;DHT22;12045;60.214;24.724;2023-04-06T13:09:02;3.90;99.90
23729;DHT22;12045;60.214;24.724;2023-04-06T13:11:31;3.80;99.90
23729;DHT22;12045;60.214;24.724;2023-04-06T13:13:58;3.80;99.90
23729;DHT22;12045;60.214;24.724;2023-04-06T13:16:26;3.90;99.90
23729;DHT22;12045;60.214;24.724;2023-04-06T13:18:53;3.90;99.90
23729;DHT22;12045;60.214;24.724;2023-04-06T13:21:21;3.90;99.90
23729;DHT22;12045;60.214;24.724;2023-04-06T13:23:49;3.90;99.90
23729;DHT22;12045;60.214;24.724;2023-04-06T13:26:17;3.90;99.90
23729;DHT22;12045;60.214;24.724;2023-04-06T13:28:45;4.00;99.90
23729;DHT22;12045;60.214;24.724;2023-04-06T13:31:12;3.90;99.90
23729;DHT22;12045;60.214;24.724;2023-04-06T13:33:40;4.00;99.90
23729;DHT22;12045;60.214;24.724;2023-04-06T13:36:08;4.00;99.90
23729;DHT22;12045;60.214;24.724;2023-04-06T13:38:35;4.00;99.90
23729;DHT22;12045;60.214;24.724;2023-04-06T13:41:06;4.00;99.90
23729;DHT22;12045;60.214;24.724;2023-04-06T13:43:33;4.00;99.90
23729;DHT22;12045;60.214;24.724;2023-04-06T13:46:01;4.10;99.90
23729;DHT22;12045;60.214;24.724;2023-04-06T13:48:28;3.90;99.90
23729;DHT22;12045;60.214;24.724;2023-04-06T13:50:56;4.40;99.90
23729;DHT22;12045;60.214;24.724;2023-04-06T13:53:23;4.10;99.90
23729;DHT22;12045;60.214;24.724;2023-04-06T13:55:55;4.60;99.90
23729;DHT22;12045;60.214;24.724;2023-04-06T13:58:23;4.00;99.90
23729;DHT22;12045;60.214;24.724;2023-04-06T14:00:50;3.90;99.90
23729;DHT22;12045;60.214;24.724;2023-04-06T14:03:18;3.90;99.90
23729;DHT22;12045;60.214;24.724;2023-04-06T14:05:46;4.00;99.90
23729;DHT22;12045;60.214;24.724;2023-04-06T14:08:14;4.50;99.90
23729;DHT22;12045;60.214;24.724;2023-04-06T14:10:41;4.60;99.90
23729;DHT22;12045;60.214;24.724;2023-04-06T14:13:09;3.90;99.90
23729;DHT22;12045;60.214;24.724;2023-04-06T14:15:37;3.90;99.90
23729;DHT22;12045;60.214;24.724;2023-04-06T14:18:05;3.90;99.90
23729;DHT22;12045;60.214;24.724;2023-04-06T14:20:33;4.20;99.90
23729;DHT22;12045;60.214;24.724;2023-04-06T14:23:01;4.00;99.90
23729;DHT22;12045;60.214;24.724;2023-04-06T14:25:29;4.20;99.90
23729;DHT22;12045;60.214;24.724;2023-04-06T14:27:59;3.90;99.90
23729;DHT22;12045;60.214;24.724;2023-04-06T14:30:26;3.90;99.90
23729;DHT22;12045;60.214;24.724;2023-04-06T14:32:57;4.20;99.90
23729;DHT22;12045;60.214;24.724;2023-04-06T14:35:25;3.90;99.90
23729;DHT22;12045;60.214;24.724;2023-04-06T14:37:56;3.90;99.90
23729;DHT22;12045;60.214;24.724;2023-04-06T14:40:28;3.80;99.90
23729;DHT22;12045;60.214;24.724;2023-04-06T14:42:56;4.10;99.90
23729;DHT22;12045;60.214;24.724;2023-04-06T14:45:23;4.00;99.90
23729;DHT22;12045;60.214;24.724;2023-04-06T14:47:51;4.00;99.90
23729;DHT22;12045;60.214;24.724;2023-04-06T14:50:19;4.00;99.90
23729;DHT22;12045;60.214;24.724;2023-04-06T14:52:47;3.90;99.90
23729;DHT22;12045;60.214;24.724;2023-04-06T14:55:14;4.10;99.90
23729;DHT22;12045;60.214;24.724;2023-04-06T14:57:42;4.10;99.90
23729;DHT22;12045;60.214;24.724;2023-04-06T15:00:11;3.90;99.90
23729;DHT22;12045;60.214;24.724;2023-04-06T15:02:39;4.10;99.90
23729;DHT22;12045;60.214;24.724;2023-04-06T15:05:07;4.30;99.90
23729;DHT22;12045;60.214;24.724;2023-04-06T15:07:34;4.00;99.90
23729;DHT22;12045;60.214;24.724;2023-04-06T15:10:05;4.70;99.90
23729;DHT22;12045;60.214;24.724;2023-04-06T15:12:32;4.00;99.90
23729;DHT22;12045;60.214;24.724;2023-04-06T15:15:00;4.00;99.90
23729;DHT22;12045;60.214;24.724;2023-04-06T15:17:28;4.40;99.90
23729;DHT22;12045;60.214;24.724;2023-04-06T15:19:55;3.70;99.90
23729;DHT22;12045;60.214;24.724;2023-04-06T15:22:23;4.20;99.90
23729;DHT22;12045;60.214;24.724;2023-04-06T15:24:50;4.20;99.90
23729;DHT22;12045;60.214;24.724;2023-04-06T15:27:18;4.10;99.90
23729;DHT22;12045;60.214;24.724;2023-04-06T15:29:45;4.30;99.90
23729;DHT22;12045;60.214;24.724;2023-04-06T15:32:13;4.80;99.90
23729;DHT22;12045;60.214;24.724;2023-04-06T15:34:40;5.00;99.90
23729;DHT22;12045;60.214;24.724;2023-04-06T15:37:08;4.60;99.90
23729;DHT22;12045;60.214;24.724;2023-04-06T15:39:35;4.50;99.90
23729;DHT22;12045;60.214;24.724;2023-04-06T15:42:04;4.60;99.90
23729;DHT22;12045;60.214;24.724;2023-04-06T15:44:31;4.80;99.90
23729;DHT22;12045;60.214;24.724;2023-04-06T15:46:58;4.30;99.90
23729;DHT22;12045;60.214;24.724;2023-04-06T15:49:26;4.50;99.90
23729;DHT22;12045;60.214;24.724;2023-04-06T15:51:53;4.60;99.90